sensor_id;sensor_type;location;lat;lon;timestamp;P1;durP1;ratioP1;P2;durP2;ratioP2
64419;SDS011;50745;48.170;14.516;2023-03-30T00:04:38;3.10;;;2.33;;
64419;SDS011;50745;48.170;14.516;2023-03-30T00:14:59;4.20;;;2.65;;
64419;SDS011;50745;48.170;14.516;2023-03-30T00:25:14;3.22;;;2.35;;
64419;SDS011;50745;48.170;14.516;2023-03-30T00:35:36;4.00;;;2.50;;
64419;SDS011;50745;48.170;14.516;2023-03-30T00:45:51;3.70;;;2.50;;
64419;SDS011;50745;48.170;14.516;2023-03-30T00:56:12;4.32;;;2.78;;
64419;SDS011;50745;48.170;14.516;2023-03-30T01:28:18;3.15;;;2.45;;
64419;SDS011;50745;48.170;14.516;2023-03-30T01:49:05;3.38;;;2.50;;
64419;SDS011;50745;48.170;14.516;2023-03-30T01:59:32;3.47;;;2.30;;
64419;SDS011;50745;48.170;14.516;2023-03-30T02:09:50;4.40;;;2.60;;
64419;SDS011;50745;48.170;14.516;2023-03-30T02:20:21;4.23;;;2.77;;
64419;SDS011;50745;48.170;14.516;2023-03-30T02:30:32;3.72;;;2.47;;
64419;SDS011;50745;48.170;14.516;2023-03-30T03:02:04;4.22;;;2.78;;
64419;SDS011;50745;48.170;14.516;2023-03-30T03:12:22;3.90;;;2.72;;
64419;SDS011;50745;48.170;14.516;2023-03-30T03:22:43;3.90;;;2.90;;
64419;SDS011;50745;48.170;14.516;2023-03-30T03:32:58;3.45;;;2.50;;
64419;SDS011;50745;48.170;14.516;2023-03-30T03:43:20;4.00;;;2.70;;
64419;SDS011;50745;48.170;14.516;2023-03-30T03:53:36;4.07;;;2.70;;
64419;SDS011;50745;48.170;14.516;2023-03-30T04:03:58;4.20;;;2.90;;
64419;SDS011;50745;48.170;14.516;2023-03-30T04:14:13;3.70;;;2.70;;
64419;SDS011;50745;48.170;14.516;2023-03-30T04:25:00;3.67;;;2.70;;
64419;SDS011;50745;48.170;14.516;2023-03-30T04:35:33;4.00;;;2.72;;
64419;SDS011;50745;48.170;14.516;2023-03-30T04:46:15;3.53;;;2.55;;
64419;SDS011;50745;48.170;14.516;2023-03-30T04:56:59;4.75;;;2.72;;
64419;SDS011;50745;48.170;14.516;2023-03-30T05:07:46;3.50;;;2.63;;
64419;SDS011;50745;48.170;14.516;2023-03-30T05:18:23;3.80;;;2.70;;
64419;SDS011;50745;48.170;14.516;2023-03-30T05:29:05;4.47;;;2.80;;
64419;SDS011;50745;48.170;14.516;2023-03-30T05:39:31;3.60;;;2.60;;
64419;SDS011;50745;48.170;14.516;2023-03-30T05:50:19;3.30;;;2.40;;
64419;SDS011;50745;48.170;14.516;2023-03-30T06:00:41;4.00;;;2.58;;
64419;SDS011;50745;48.170;14.516;2023-03-30T06:11:12;4.07;;;2.80;;
64419;SDS011;50745;48.170;14.516;2023-03-30T06:21:38;4.07;;;2.70;;
64419;SDS011;50745;48.170;14.516;2023-03-30T06:32:21;3.70;;;2.55;;
64419;SDS011;50745;48.170;14.516;2023-03-30T06:42:56;4.40;;;3.00;;
64419;SDS011;50745;48.170;14.516;2023-03-30T06:53:21;4.78;;;2.70;;
64419;SDS011;50745;48.170;14.516;2023-03-30T07:03:36;4.43;;;2.80;;
64419;SDS011;50745;48.170;14.516;2023-03-30T07:14:06;4.03;;;2.67;;
64419;SDS011;50745;48.170;14.516;2023-03-30T07:24:24;3.80;;;2.70;;
64419;SDS011;50745;48.170;14.516;2023-03-30T07:34:46;4.10;;;2.80;;
64419;SDS011;50745;48.170;14.516;2023-03-30T07:45:05;4.00;;;2.63;;
64419;SDS011;50745;48.170;14.516;2023-03-30T07:55:27;4.10;;;2.80;;
64419;SDS011;50745;48.170;14.516;2023-03-30T08:05:51;4.10;;;2.65;;
64419;SDS011;50745;48.170;14.516;2023-03-30T08:16:17;3.75;;;2.80;;
64419;SDS011;50745;48.170;14.516;2023-03-30T08:26:32;4.70;;;2.65;;
64419;SDS011;50745;48.170;14.516;2023-03-30T08:36:52;3.65;;;2.70;;
64419;SDS011;50745;48.170;14.516;2023-03-30T08:47:12;4.22;;;2.78;;
64419;SDS011;50745;48.170;14.516;2023-03-30T09:28:43;4.30;;;2.40;;
64419;SDS011;50745;48.170;14.516;2023-03-30T09:39:16;3.72;;;2.70;;
64419;SDS011;50745;48.170;14.516;2023-03-30T09:49:37;4.25;;;2.70;;
64419;SDS011;50745;48.170;14.516;2023-03-30T10:00:21;3.50;;;2.60;;
64419;SDS011;50745;48.170;14.516;2023-03-30T10:10:37;3.42;;;2.50;;
64419;SDS011;50745;48.170;14.516;2023-03-30T10:31:14;3.60;;;2.60;;
64419;SDS011;50745;48.170;14.516;2023-03-30T10:41:42;3.88;;;2.50;;
64419;SDS011;50745;48.170;14.516;2023-03-30T11:13:20;4.03;;;2.75;;
64419;SDS011;50745;48.170;14.516;2023-03-30T11:23:50;3.50;;;2.72;;
64419;SDS011;50745;48.170;14.516;2023-03-30T11:44:38;3.92;;;2.80;;
64419;SDS011;50745;48.170;14.516;2023-03-30T11:55:04;3.40;;;2.50;;
64419;SDS011;50745;48.170;14.516;2023-03-30T12:26:25;4.05;;;2.75;;
64419;SDS011;50745;48.170;14.516;2023-03-30T12:36:41;4.00;;;2.60;;
64419;SDS011;50745;48.170;14.516;2023-03-30T12:57:37;3.60;;;2.55;;
64419;SDS011;50745;48.170;14.516;2023-03-30T13:08:25;3.90;;;2.50;;
64419;SDS011;50745;48.170;14.516;2023-03-30T13:18:51;4.32;;;2.67;;
64419;SDS011;50745;48.170;14.516;2023-03-30T13:29:20;3.55;;;2.35;;
64419;SDS011;50745;48.170;14.516;2023-03-30T14:10:48;4.20;;;2.70;;
64419;SDS011;50745;48.170;14.516;2023-03-30T14:21:05;3.42;;;2.55;;
64419;SDS011;50745;48.170;14.516;2023-03-30T14:31:36;3.85;;;2.50;;
64419;SDS011;50745;48.170;14.516;2023-03-30T14:41:51;3.67;;;2.70;;
64419;SDS011;50745;48.170;14.516;2023-03-30T14:52:15;4.20;;;2.80;;
64419;SDS011;50745;48.170;14.516;2023-03-30T15:02:31;3.90;;;2.70;;
64419;SDS011;50745;48.170;14.516;2023-03-30T15:12:55;4.28;;;2.50;;
64419;SDS011;50745;48.170;14.516;2023-03-30T15:23:11;4.13;;;2.80;;
64419;SDS011;50745;48.170;14.516;2023-03-30T15:43:56;3.90;;;2.53;;
64419;SDS011;50745;48.170;14.516;2023-03-30T15:54:22;3.85;;;2.53;;
64419;SDS011;50745;48.170;14.516;2023-03-30T16:04:39;4.03;;;2.90;;
64419;SDS011;50745;48.170;14.516;2023-03-30T16:15:01;3.60;;;2.65;;
64419;SDS011;50745;48.170;14.516;2023-03-30T16:25:20;4.18;;;2.70;;
64419;SDS011;50745;48.170;14.516;2023-03-30T16:35:40;3.45;;;2.35;;
64419;SDS011;50745;48.170;14.516;2023-03-30T16:45:55;4.20;;;2.85;;
64419;SDS011;50745;48.170;14.516;2023-03-30T16:56:16;5.03;;;2.80;;
64419;SDS011;50745;48.170;14.516;2023-03-30T17:06:30;4.43;;;2.70;;
64419;SDS011;50745;48.170;14.516;2023-03-30T17:16:50;4.78;;;2.72;;
64419;SDS011;50745;48.170;14.516;2023-03-30T17:27:06;4.63;;;2.90;;
64419;SDS011;50745;48.170;14.516;2023-03-30T17:37:28;4.97;;;3.13;;
64419;SDS011;50745;48.170;14.516;2023-03-30T17:47:44;5.10;;;3.40;;
64419;SDS011;50745;48.170;14.516;2023-03-30T17:58:08;6.45;;;3.65;;
64419;SDS011;50745;48.170;14.516;2023-03-30T18:08:26;6.32;;;4.13;;
64419;SDS011;50745;48.170;14.516;2023-03-30T18:29:04;6.80;;;4.10;;
64419;SDS011;50745;48.170;14.516;2023-03-30T18:39:22;8.45;;;4.28;;
64419;SDS011;50745;48.170;14.516;2023-03-30T18:49:50;6.82;;;4.15;;
64419;SDS011;50745;48.170;14.516;2023-03-30T18:59:57;9.38;;;4.05;;
64419;SDS011;50745;48.170;14.516;2023-03-30T19:10:29;7.40;;;4.07;;
64419;SDS011;50745;48.170;14.516;2023-03-30T19:20:57;6.88;;;4.10;;
64419;SDS011;50745;48.170;14.516;2023-03-30T19:31:11;8.25;;;4.10;;
64419;SDS011;50745;48.170;14.516;2023-03-30T19:41:33;8.00;;;3.83;;
64419;SDS011;50745;48.170;14.516;2023-03-30T19:51:47;6.85;;;3.85;;
64419;SDS011;50745;48.170;14.516;2023-03-30T20:02:08;6.60;;;3.88;;
64419;SDS011;50745;48.170;14.516;2023-03-30T20:12:23;6.47;;;3.90;;
64419;SDS011;50745;48.170;14.516;2023-03-30T20:22:44;6.13;;;3.70;;
64419;SDS011;50745;48.170;14.516;2023-03-30T20:32:59;6.43;;;3.78;;
64419;SDS011;50745;48.170;14.516;2023-03-30T20:43:21;7.22;;;4.00;;
64419;SDS011;50745;48.170;14.516;2023-03-30T20:53:38;6.90;;;4.22;;
64419;SDS011;50745;48.170;14.516;2023-03-30T21:04:00;6.60;;;4.00;;
64419;SDS011;50745;48.170;14.516;2023-03-30T21:14:15;6.45;;;3.80;;
64419;SDS011;50745;48.170;14.516;2023-03-30T21:24:36;5.82;;;3.70;;
64419;SDS011;50745;48.170;14.516;2023-03-30T21:34:51;6.00;;;3.88;;
64419;SDS011;50745;48.170;14.516;2023-03-30T21:45:12;5.83;;;3.83;;
64419;SDS011;50745;48.170;14.516;2023-03-30T21:55:26;6.25;;;3.92;;
64419;SDS011;50745;48.170;14.516;2023-03-30T22:05:48;5.87;;;3.60;;
64419;SDS011;50745;48.170;14.516;2023-03-30T22:16:08;6.45;;;4.05;;
64419;SDS011;50745;48.170;14.516;2023-03-30T22:26:29;5.30;;;3.50;;
64419;SDS011;50745;48.170;14.516;2023-03-30T22:36:44;5.43;;;3.50;;
64419;SDS011;50745;48.170;14.516;2023-03-30T22:47:05;5.47;;;3.60;;
64419;SDS011;50745;48.170;14.516;2023-03-30T22:57:19;5.63;;;3.75;;
64419;SDS011;50745;48.170;14.516;2023-03-30T23:07:40;5.05;;;3.30;;
64419;SDS011;50745;48.170;14.516;2023-03-30T23:17:57;6.13;;;3.47;;
64419;SDS011;50745;48.170;14.516;2023-03-30T23:28:18;5.30;;;3.60;;
64419;SDS011;50745;48.170;14.516;2023-03-30T23:38:33;5.55;;;3.65;;
64419;SDS011;50745;48.170;14.516;2023-03-30T23:48:54;6.03;;;3.42;;
64419;SDS011;50745;48.170;14.516;2023-03-30T23:59:09;5.72;;;3.10;;
